sensor_id;sensor_type;location;lat;lon;timestamp;temperature;humidity
13336;DHT22;6737;51.480;11.962;2024-02-26T00:00:00;4.70;99.90
13336;DHT22;6737;51.480;11.962;2024-02-26T00:02:26;4.60;99.90
13336;DHT22;6737;51.480;11.962;2024-02-26T00:04:51;4.60;99.90
13336;DHT22;6737;51.480;11.962;2024-02-26T00:07:17;4.50;99.90
13336;DHT22;6737;51.480;11.962;2024-02-26T00:09:43;4.50;99.90
13336;DHT22;6737;51.480;11.962;2024-02-26T00:12:09;4.40;99.90
13336;DHT22;6737;51.480;11.962;2024-02-26T00:14:34;4.30;99.90
13336;DHT22;6737;51.480;11.962;2024-02-26T00:17:00;4.30;99.90
13336;DHT22;6737;51.480;11.962;2024-02-26T00:19:26;4.20;99.90
13336;DHT22;6737;51.480;11.962;2024-02-26T00:21:52;4.20;99.90
13336;DHT22;6737;51.480;11.962;2024-02-26T00:24:19;4.20;99.90
13336;DHT22;6737;51.480;11.962;2024-02-26T00:26:45;4.30;99.90
13336;DHT22;6737;51.480;11.962;2024-02-26T00:29:10;4.20;99.90
13336;DHT22;6737;51.480;11.962;2024-02-26T00:31:37;4.30;99.90
13336;DHT22;6737;51.480;11.962;2024-02-26T00:34:06;4.20;99.90
13336;DHT22;6737;51.480;11.962;2024-02-26T00:36:32;4.20;99.90
13336;DHT22;6737;51.480;11.962;2024-02-26T00:38:57;4.20;99.90
13336;DHT22;6737;51.480;11.962;2024-02-26T00:41:23;4.10;99.90
13336;DHT22;6737;51.480;11.962;2024-02-26T00:43:49;4.00;99.90
13336;DHT22;6737;51.480;11.962;2024-02-26T00:46:14;4.00;99.90
13336;DHT22;6737;51.480;11.962;2024-02-26T00:48:40;4.00;99.90
13336;DHT22;6737;51.480;11.962;2024-02-26T00:51:06;3.90;99.90
13336;DHT22;6737;51.480;11.962;2024-02-26T00:53:33;4.00;99.90
13336;DHT22;6737;51.480;11.962;2024-02-26T00:55:59;3.90;99.90
13336;DHT22;6737;51.480;11.962;2024-02-26T00:58:26;3.90;99.90
13336;DHT22;6737;51.480;11.962;2024-02-26T01:00:52;3.80;99.90
13336;DHT22;6737;51.480;11.962;2024-02-26T01:03:18;3.70;99.90
13336;DHT22;6737;51.480;11.962;2024-02-26T01:05:44;3.60;99.90
13336;DHT22;6737;51.480;11.962;2024-02-26T01:08:10;3.50;99.90
13336;DHT22;6737;51.480;11.962;2024-02-26T01:10:36;3.40;99.90
13336;DHT22;6737;51.480;11.962;2024-02-26T01:13:02;3.40;99.90
13336;DHT22;6737;51.480;11.962;2024-02-26T01:15:28;3.40;99.90
13336;DHT22;6737;51.480;11.962;2024-02-26T01:17:54;3.50;99.90
13336;DHT22;6737;51.480;11.962;2024-02-26T01:20:20;3.40;99.90
13336;DHT22;6737;51.480;11.962;2024-02-26T01:22:46;3.40;99.90
13336;DHT22;6737;51.480;11.962;2024-02-26T01:25:12;3.50;99.90
13336;DHT22;6737;51.480;11.962;2024-02-26T01:27:39;3.50;99.90
13336;DHT22;6737;51.480;11.962;2024-02-26T01:30:07;3.60;99.90
13336;DHT22;6737;51.480;11.962;2024-02-26T01:32:33;3.70;99.90
13336;DHT22;6737;51.480;11.962;2024-02-26T01:34:58;3.70;99.90
13336;DHT22;6737;51.480;11.962;2024-02-26T01:37:24;3.80;99.90
13336;DHT22;6737;51.480;11.962;2024-02-26T01:39:51;3.90;99.90
13336;DHT22;6737;51.480;11.962;2024-02-26T01:42:16;4.00;99.90
13336;DHT22;6737;51.480;11.962;2024-02-26T01:44:42;4.00;99.90
13336;DHT22;6737;51.480;11.962;2024-02-26T01:47:11;4.00;99.90
13336;DHT22;6737;51.480;11.962;2024-02-26T01:49:37;4.10;99.90
13336;DHT22;6737;51.480;11.962;2024-02-26T01:52:05;4.10;99.90
13336;DHT22;6737;51.480;11.962;2024-02-26T01:54:35;4.10;99.90
13336;DHT22;6737;51.480;11.962;2024-02-26T01:57:03;4.10;99.90
13336;DHT22;6737;51.480;11.962;2024-02-26T01:59:29;4.10;99.90
13336;DHT22;6737;51.480;11.962;2024-02-26T02:01:57;4.10;99.90
13336;DHT22;6737;51.480;11.962;2024-02-26T02:04:24;4.10;99.90
13336;DHT22;6737;51.480;11.962;2024-02-26T02:06:51;4.20;99.90
13336;DHT22;6737;51.480;11.962;2024-02-26T02:09:18;4.10;99.90
13336;DHT22;6737;51.480;11.962;2024-02-26T02:11:44;4.10;99.90
13336;DHT22;6737;51.480;11.962;2024-02-26T02:14:10;4.00;99.90
13336;DHT22;6737;51.480;11.962;2024-02-26T02:16:36;4.00;99.90
13336;DHT22;6737;51.480;11.962;2024-02-26T02:19:02;4.00;99.90
13336;DHT22;6737;51.480;11.962;2024-02-26T02:21:28;4.00;99.90
13336;DHT22;6737;51.480;11.962;2024-02-26T02:23:53;3.90;99.90
13336;DHT22;6737;51.480;11.962;2024-02-26T02:26:19;3.90;99.90
13336;DHT22;6737;51.480;11.962;2024-02-26T02:28:46;3.90;99.90
13336;DHT22;6737;51.480;11.962;2024-02-26T02:31:13;3.90;99.90
13336;DHT22;6737;51.480;11.962;2024-02-26T02:33:38;3.90;99.90
13336;DHT22;6737;51.480;11.962;2024-02-26T02:36:04;3.80;99.90
13336;DHT22;6737;51.480;11.962;2024-02-26T02:38:34;3.70;99.90
13336;DHT22;6737;51.480;11.962;2024-02-26T02:41:00;3.70;99.90
13336;DHT22;6737;51.480;11.962;2024-02-26T02:43:26;3.50;99.90
13336;DHT22;6737;51.480;11.962;2024-02-26T02:45:52;3.30;99.90
13336;DHT22;6737;51.480;11.962;2024-02-26T02:48:17;3.30;99.90
13336;DHT22;6737;51.480;11.962;2024-02-26T02:50:43;3.30;99.90
13336;DHT22;6737;51.480;11.962;2024-02-26T02:53:09;3.10;99.90
13336;DHT22;6737;51.480;11.962;2024-02-26T02:55:35;3.10;99.90
13336;DHT22;6737;51.480;11.962;2024-02-26T02:58:01;3.00;99.90
13336;DHT22;6737;51.480;11.962;2024-02-26T03:00:27;2.90;99.90
13336;DHT22;6737;51.480;11.962;2024-02-26T03:02:53;2.80;99.90
13336;DHT22;6737;51.480;11.962;2024-02-26T03:05:19;2.90;99.90
13336;DHT22;6737;51.480;11.962;2024-02-26T03:07:44;2.90;99.90
13336;DHT22;6737;51.480;11.962;2024-02-26T03:10:10;2.90;99.90
13336;DHT22;6737;51.480;11.962;2024-02-26T03:12:36;3.00;99.90
13336;DHT22;6737;51.480;11.962;2024-02-26T03:15:02;3.00;99.90
13336;DHT22;6737;51.480;11.962;2024-02-26T03:17:30;3.00;99.90
13336;DHT22;6737;51.480;11.962;2024-02-26T03:19:56;2.90;99.90
13336;DHT22;6737;51.480;11.962;2024-02-26T03:22:22;2.90;99.90
13336;DHT22;6737;51.480;11.962;2024-02-26T03:24:48;2.90;99.90
13336;DHT22;6737;51.480;11.962;2024-02-26T03:27:14;3.00;99.90
13336;DHT22;6737;51.480;11.962;2024-02-26T03:29:40;2.90;99.90
13336;DHT22;6737;51.480;11.962;2024-02-26T03:32:06;2.90;99.90
13336;DHT22;6737;51.480;11.962;2024-02-26T03:34:32;2.80;99.90
13336;DHT22;6737;51.480;11.962;2024-02-26T03:37:00;2.80;99.90
13336;DHT22;6737;51.480;11.962;2024-02-26T03:39:26;2.80;99.90
13336;DHT22;6737;51.480;11.962;2024-02-26T03:41:52;2.80;99.90
13336;DHT22;6737;51.480;11.962;2024-02-26T03:44:18;2.80;99.90
13336;DHT22;6737;51.480;11.962;2024-02-26T03:46:44;2.80;99.90
13336;DHT22;6737;51.480;11.962;2024-02-26T03:49:09;2.90;99.90
13336;DHT22;6737;51.480;11.962;2024-02-26T03:51:35;2.90;99.90
13336;DHT22;6737;51.480;11.962;2024-02-26T03:54:01;2.90;99.90
13336;DHT22;6737;51.480;11.962;2024-02-26T03:56:27;2.90;99.90
13336;DHT22;6737;51.480;11.962;2024-02-26T03:58:53;2.80;99.90
13336;DHT22;6737;51.480;11.962;2024-02-26T04:01:19;2.70;99.90
13336;DHT22;6737;51.480;11.962;2024-02-26T04:03:45;2.70;99.90
13336;DHT22;6737;51.480;11.962;2024-02-26T04:06:11;2.70;99.90
13336;DHT22;6737;51.480;11.962;2024-02-26T04:08:41;2.70;99.90
13336;DHT22;6737;51.480;11.962;2024-02-26T04:11:07;2.70;99.90
13336;DHT22;6737;51.480;11.962;2024-02-26T04:13:36;2.70;99.90
13336;DHT22;6737;51.480;11.962;2024-02-26T04:16:06;2.70;99.90
13336;DHT22;6737;51.480;11.962;2024-02-26T04:18:32;2.80;99.90
13336;DHT22;6737;51.480;11.962;2024-02-26T04:20:58;2.80;99.90
13336;DHT22;6737;51.480;11.962;2024-02-26T04:23:25;2.80;99.90
13336;DHT22;6737;51.480;11.962;2024-02-26T04:25:50;2.80;99.90
13336;DHT22;6737;51.480;11.962;2024-02-26T04:28:19;2.90;99.90
13336;DHT22;6737;51.480;11.962;2024-02-26T04:30:47;2.90;99.90
13336;DHT22;6737;51.480;11.962;2024-02-26T04:33:13;2.90;99.90
13336;DHT22;6737;51.480;11.962;2024-02-26T04:35:39;2.80;99.90
13336;DHT22;6737;51.480;11.962;2024-02-26T04:38:05;2.90;99.90
13336;DHT22;6737;51.480;11.962;2024-02-26T04:40:31;2.90;99.90
13336;DHT22;6737;51.480;11.962;2024-02-26T04:42:57;2.90;99.90
13336;DHT22;6737;51.480;11.962;2024-02-26T04:45:23;2.90;99.90
13336;DHT22;6737;51.480;11.962;2024-02-26T04:47:49;3.10;99.90
13336;DHT22;6737;51.480;11.962;2024-02-26T04:50:15;3.20;99.90
13336;DHT22;6737;51.480;11.962;2024-02-26T04:52:41;3.10;99.90
13336;DHT22;6737;51.480;11.962;2024-02-26T04:55:07;3.00;99.90
13336;DHT22;6737;51.480;11.962;2024-02-26T04:57:33;3.00;99.90
13336;DHT22;6737;51.480;11.962;2024-02-26T04:59:59;3.10;99.90
13336;DHT22;6737;51.480;11.962;2024-02-26T05:02:24;3.00;99.90
13336;DHT22;6737;51.480;11.962;2024-02-26T05:04:50;3.10;99.90
13336;DHT22;6737;51.480;11.962;2024-02-26T05:07:16;3.10;99.90
13336;DHT22;6737;51.480;11.962;2024-02-26T05:09:45;3.10;99.90
13336;DHT22;6737;51.480;11.962;2024-02-26T05:12:12;3.20;99.90
13336;DHT22;6737;51.480;11.962;2024-02-26T05:14:37;3.20;99.90
13336;DHT22;6737;51.480;11.962;2024-02-26T05:17:03;3.20;99.90
13336;DHT22;6737;51.480;11.962;2024-02-26T05:19:29;3.20;99.90
13336;DHT22;6737;51.480;11.962;2024-02-26T05:21:55;3.20;99.90
13336;DHT22;6737;51.480;11.962;2024-02-26T05:24:21;3.20;99.90
13336;DHT22;6737;51.480;11.962;2024-02-26T05:26:48;3.30;99.90
13336;DHT22;6737;51.480;11.962;2024-02-26T05:29:14;3.30;99.90
13336;DHT22;6737;51.480;11.962;2024-02-26T05:31:42;3.20;99.90
13336;DHT22;6737;51.480;11.962;2024-02-26T05:34:08;3.20;99.90
13336;DHT22;6737;51.480;11.962;2024-02-26T05:36:34;3.30;99.90
13336;DHT22;6737;51.480;11.962;2024-02-26T05:39:00;3.40;99.90
13336;DHT22;6737;51.480;11.962;2024-02-26T05:41:26;3.40;99.90
13336;DHT22;6737;51.480;11.962;2024-02-26T05:43:55;3.40;99.90
13336;DHT22;6737;51.480;11.962;2024-02-26T05:46:22;3.50;99.90
13336;DHT22;6737;51.480;11.962;2024-02-26T05:48:50;3.50;99.90
13336;DHT22;6737;51.480;11.962;2024-02-26T05:51:16;3.50;99.90
13336;DHT22;6737;51.480;11.962;2024-02-26T05:53:42;3.50;99.90
13336;DHT22;6737;51.480;11.962;2024-02-26T05:56:08;3.60;99.90
13336;DHT22;6737;51.480;11.962;2024-02-26T05:58:34;3.50;99.90
13336;DHT22;6737;51.480;11.962;2024-02-26T06:00:59;3.40;99.90
13336;DHT22;6737;51.480;11.962;2024-02-26T06:03:26;3.40;99.90
13336;DHT22;6737;51.480;11.962;2024-02-26T06:05:52;3.40;99.90
13336;DHT22;6737;51.480;11.962;2024-02-26T06:08:18;3.30;99.90
13336;DHT22;6737;51.480;11.962;2024-02-26T06:10:44;3.30;99.90
13336;DHT22;6737;51.480;11.962;2024-02-26T06:13:10;3.30;99.90
13336;DHT22;6737;51.480;11.962;2024-02-26T06:15:35;3.40;99.90
13336;DHT22;6737;51.480;11.962;2024-02-26T06:18:01;3.40;99.90
13336;DHT22;6737;51.480;11.962;2024-02-26T06:20:27;3.30;99.90
13336;DHT22;6737;51.480;11.962;2024-02-26T06:22:53;3.40;99.90
13336;DHT22;6737;51.480;11.962;2024-02-26T06:25:19;3.30;99.90
13336;DHT22;6737;51.480;11.962;2024-02-26T06:27:45;3.20;99.90
13336;DHT22;6737;51.480;11.962;2024-02-26T06:30:11;3.20;99.90
13336;DHT22;6737;51.480;11.962;2024-02-26T06:32:40;3.30;99.90
13336;DHT22;6737;51.480;11.962;2024-02-26T06:35:06;3.30;99.90
13336;DHT22;6737;51.480;11.962;2024-02-26T06:37:35;3.30;99.90
13336;DHT22;6737;51.480;11.962;2024-02-26T06:40:02;3.30;99.90
13336;DHT22;6737;51.480;11.962;2024-02-26T06:42:32;3.30;99.90
13336;DHT22;6737;51.480;11.962;2024-02-26T06:44:58;3.40;99.90
13336;DHT22;6737;51.480;11.962;2024-02-26T06:47:24;3.40;99.90
13336;DHT22;6737;51.480;11.962;2024-02-26T06:49:51;3.50;99.90
13336;DHT22;6737;51.480;11.962;2024-02-26T06:52:17;3.50;99.90
13336;DHT22;6737;51.480;11.962;2024-02-26T06:54:43;3.60;99.90
13336;DHT22;6737;51.480;11.962;2024-02-26T06:57:10;3.60;99.90
13336;DHT22;6737;51.480;11.962;2024-02-26T06:59:36;3.50;99.90
13336;DHT22;6737;51.480;11.962;2024-02-26T07:02:02;3.60;99.90
13336;DHT22;6737;51.480;11.962;2024-02-26T07:04:28;3.60;99.90
13336;DHT22;6737;51.480;11.962;2024-02-26T07:06:54;3.60;99.90
13336;DHT22;6737;51.480;11.962;2024-02-26T07:09:20;3.70;99.90
13336;DHT22;6737;51.480;11.962;2024-02-26T07:11:46;3.80;99.90
13336;DHT22;6737;51.480;11.962;2024-02-26T07:14:12;3.80;99.90
13336;DHT22;6737;51.480;11.962;2024-02-26T07:16:38;3.80;99.90
13336;DHT22;6737;51.480;11.962;2024-02-26T07:19:04;3.90;99.90
13336;DHT22;6737;51.480;11.962;2024-02-26T07:21:30;4.00;99.90
13336;DHT22;6737;51.480;11.962;2024-02-26T07:23:56;4.00;99.90
13336;DHT22;6737;51.480;11.962;2024-02-26T07:26:22;4.10;99.90
13336;DHT22;6737;51.480;11.962;2024-02-26T07:28:50;4.20;99.90
13336;DHT22;6737;51.480;11.962;2024-02-26T07:31:17;4.20;99.90
13336;DHT22;6737;51.480;11.962;2024-02-26T07:33:43;4.30;99.90
13336;DHT22;6737;51.480;11.962;2024-02-26T07:36:09;4.30;99.90
13336;DHT22;6737;51.480;11.962;2024-02-26T07:38:35;4.40;99.90
13336;DHT22;6737;51.480;11.962;2024-02-26T07:41:02;4.30;99.90
13336;DHT22;6737;51.480;11.962;2024-02-26T07:43:28;4.30;99.90
13336;DHT22;6737;51.480;11.962;2024-02-26T07:45:54;4.40;99.90
13336;DHT22;6737;51.480;11.962;2024-02-26T07:48:20;4.50;99.90
13336;DHT22;6737;51.480;11.962;2024-02-26T07:50:46;4.60;99.90
13336;DHT22;6737;51.480;11.962;2024-02-26T07:53:13;4.70;99.90
13336;DHT22;6737;51.480;11.962;2024-02-26T07:55:39;4.80;99.90
13336;DHT22;6737;51.480;11.962;2024-02-26T07:58:07;4.80;99.90
13336;DHT22;6737;51.480;11.962;2024-02-26T08:00:32;5.00;99.90
13336;DHT22;6737;51.480;11.962;2024-02-26T08:02:58;5.10;99.90
13336;DHT22;6737;51.480;11.962;2024-02-26T08:05:24;5.00;99.90
13336;DHT22;6737;51.480;11.962;2024-02-26T08:07:50;5.20;99.90
13336;DHT22;6737;51.480;11.962;2024-02-26T08:10:16;5.20;99.90
13336;DHT22;6737;51.480;11.962;2024-02-26T08:12:43;5.20;99.90
13336;DHT22;6737;51.480;11.962;2024-02-26T08:15:10;5.20;99.90
13336;DHT22;6737;51.480;11.962;2024-02-26T08:17:37;5.30;99.90
13336;DHT22;6737;51.480;11.962;2024-02-26T08:20:03;5.50;99.90
13336;DHT22;6737;51.480;11.962;2024-02-26T08:22:30;5.40;99.90
13336;DHT22;6737;51.480;11.962;2024-02-26T08:24:55;5.40;99.90
13336;DHT22;6737;51.480;11.962;2024-02-26T08:27:21;5.60;99.90
13336;DHT22;6737;51.480;11.962;2024-02-26T08:29:47;5.70;99.90
13336;DHT22;6737;51.480;11.962;2024-02-26T08:32:13;5.60;99.90
13336;DHT22;6737;51.480;11.962;2024-02-26T08:34:38;5.70;99.90
13336;DHT22;6737;51.480;11.962;2024-02-26T08:37:06;5.80;99.90
13336;DHT22;6737;51.480;11.962;2024-02-26T08:39:31;5.80;99.90
13336;DHT22;6737;51.480;11.962;2024-02-26T08:41:57;5.80;99.90
13336;DHT22;6737;51.480;11.962;2024-02-26T08:44:23;5.90;99.90
13336;DHT22;6737;51.480;11.962;2024-02-26T08:46:49;5.90;99.90
13336;DHT22;6737;51.480;11.962;2024-02-26T08:49:16;6.00;99.90
13336;DHT22;6737;51.480;11.962;2024-02-26T08:51:42;6.10;99.90
13336;DHT22;6737;51.480;11.962;2024-02-26T08:54:09;6.10;99.90
13336;DHT22;6737;51.480;11.962;2024-02-26T08:56:35;6.10;99.90
13336;DHT22;6737;51.480;11.962;2024-02-26T08:59:01;6.10;99.90
13336;DHT22;6737;51.480;11.962;2024-02-26T09:01:31;6.20;99.90
13336;DHT22;6737;51.480;11.962;2024-02-26T09:03:57;6.20;99.90
13336;DHT22;6737;51.480;11.962;2024-02-26T09:06:23;6.20;99.90
13336;DHT22;6737;51.480;11.962;2024-02-26T09:08:49;6.20;99.90
13336;DHT22;6737;51.480;11.962;2024-02-26T09:11:14;6.30;99.90
13336;DHT22;6737;51.480;11.962;2024-02-26T09:13:40;6.30;99.90
13336;DHT22;6737;51.480;11.962;2024-02-26T09:16:06;6.40;99.90
13336;DHT22;6737;51.480;11.962;2024-02-26T09:18:32;6.40;99.90
13336;DHT22;6737;51.480;11.962;2024-02-26T09:20:58;6.50;99.90
13336;DHT22;6737;51.480;11.962;2024-02-26T09:23:24;6.50;99.90
13336;DHT22;6737;51.480;11.962;2024-02-26T09:25:50;6.60;99.90
13336;DHT22;6737;51.480;11.962;2024-02-26T09:28:16;6.60;99.90
13336;DHT22;6737;51.480;11.962;2024-02-26T09:30:44;6.70;99.90
13336;DHT22;6737;51.480;11.962;2024-02-26T09:33:10;6.80;99.90
13336;DHT22;6737;51.480;11.962;2024-02-26T09:35:37;6.80;99.90
13336;DHT22;6737;51.480;11.962;2024-02-26T09:38:03;6.90;99.90
13336;DHT22;6737;51.480;11.962;2024-02-26T09:40:28;7.00;99.90
13336;DHT22;6737;51.480;11.962;2024-02-26T09:42:59;7.00;99.90
13336;DHT22;6737;51.480;11.962;2024-02-26T09:45:28;7.10;99.90
13336;DHT22;6737;51.480;11.962;2024-02-26T09:47:55;7.10;99.90
13336;DHT22;6737;51.480;11.962;2024-02-26T09:50:22;7.20;99.90
13336;DHT22;6737;51.480;11.962;2024-02-26T09:52:51;7.30;99.90
13336;DHT22;6737;51.480;11.962;2024-02-26T09:55:20;7.40;99.90
13336;DHT22;6737;51.480;11.962;2024-02-26T09:57:46;7.30;99.90
13336;DHT22;6737;51.480;11.962;2024-02-26T10:00:19;7.40;99.90
13336;DHT22;6737;51.480;11.962;2024-02-26T10:02:47;7.50;99.90
13336;DHT22;6737;51.480;11.962;2024-02-26T10:05:17;7.60;99.90
13336;DHT22;6737;51.480;11.962;2024-02-26T10:07:46;7.60;99.90
13336;DHT22;6737;51.480;11.962;2024-02-26T10:10:14;7.60;99.90
13336;DHT22;6737;51.480;11.962;2024-02-26T10:12:40;7.70;99.90
13336;DHT22;6737;51.480;11.962;2024-02-26T10:15:06;7.70;99.90
13336;DHT22;6737;51.480;11.962;2024-02-26T10:17:33;7.80;99.90
13336;DHT22;6737;51.480;11.962;2024-02-26T10:20:15;7.80;99.90
13336;DHT22;6737;51.480;11.962;2024-02-26T10:22:42;7.90;99.90
13336;DHT22;6737;51.480;11.962;2024-02-26T10:25:08;7.90;99.90
13336;DHT22;6737;51.480;11.962;2024-02-26T10:27:35;8.00;99.90
13336;DHT22;6737;51.480;11.962;2024-02-26T10:30:13;8.00;99.90
13336;DHT22;6737;51.480;11.962;2024-02-26T10:32:41;8.10;99.90
13336;DHT22;6737;51.480;11.962;2024-02-26T10:35:10;8.20;99.90
13336;DHT22;6737;51.480;11.962;2024-02-26T10:37:35;8.10;99.90
13336;DHT22;6737;51.480;11.962;2024-02-26T10:40:02;8.20;99.90
13336;DHT22;6737;51.480;11.962;2024-02-26T10:42:30;8.20;99.90
13336;DHT22;6737;51.480;11.962;2024-02-26T10:44:58;8.30;99.90
13336;DHT22;6737;51.480;11.962;2024-02-26T10:47:24;8.30;99.90
13336;DHT22;6737;51.480;11.962;2024-02-26T10:49:51;8.40;99.90
13336;DHT22;6737;51.480;11.962;2024-02-26T10:52:19;8.40;99.90
13336;DHT22;6737;51.480;11.962;2024-02-26T10:54:47;8.40;99.90
13336;DHT22;6737;51.480;11.962;2024-02-26T10:57:16;8.40;99.90
13336;DHT22;6737;51.480;11.962;2024-02-26T10:59:44;8.40;99.90
13336;DHT22;6737;51.480;11.962;2024-02-26T11:02:11;8.40;99.90
13336;DHT22;6737;51.480;11.962;2024-02-26T11:04:39;8.50;99.90
13336;DHT22;6737;51.480;11.962;2024-02-26T11:07:05;8.50;99.90
13336;DHT22;6737;51.480;11.962;2024-02-26T11:09:34;8.50;99.90
13336;DHT22;6737;51.480;11.962;2024-02-26T11:12:02;8.60;99.90
13336;DHT22;6737;51.480;11.962;2024-02-26T11:14:30;8.60;99.90
13336;DHT22;6737;51.480;11.962;2024-02-26T11:16:58;8.60;99.90
13336;DHT22;6737;51.480;11.962;2024-02-26T11:19:26;8.70;99.90
13336;DHT22;6737;51.480;11.962;2024-02-26T11:21:53;8.70;99.90
13336;DHT22;6737;51.480;11.962;2024-02-26T11:24:19;8.80;99.90
13336;DHT22;6737;51.480;11.962;2024-02-26T11:29:15;8.90;99.90
13336;DHT22;6737;51.480;11.962;2024-02-26T11:31:42;8.90;99.90
13336;DHT22;6737;51.480;11.962;2024-02-26T11:34:09;9.10;99.90
13336;DHT22;6737;51.480;11.962;2024-02-26T11:36:36;9.10;99.90
13336;DHT22;6737;51.480;11.962;2024-02-26T11:39:04;9.20;99.90
13336;DHT22;6737;51.480;11.962;2024-02-26T11:41:30;9.20;99.90
13336;DHT22;6737;51.480;11.962;2024-02-26T11:44:01;9.30;99.90
13336;DHT22;6737;51.480;11.962;2024-02-26T11:46:33;9.30;99.90
13336;DHT22;6737;51.480;11.962;2024-02-26T11:49:01;9.30;99.90
13336;DHT22;6737;51.480;11.962;2024-02-26T11:51:32;9.40;99.90
13336;DHT22;6737;51.480;11.962;2024-02-26T11:53:59;9.40;99.90
13336;DHT22;6737;51.480;11.962;2024-02-26T11:56:25;9.50;99.90
13336;DHT22;6737;51.480;11.962;2024-02-26T11:59:00;9.50;99.90
13336;DHT22;6737;51.480;11.962;2024-02-26T12:01:58;9.60;99.90
13336;DHT22;6737;51.480;11.962;2024-02-26T12:04:26;9.60;99.90
13336;DHT22;6737;51.480;11.962;2024-02-26T12:07:00;9.60;99.90
13336;DHT22;6737;51.480;11.962;2024-02-26T12:09:40;9.60;99.90
13336;DHT22;6737;51.480;11.962;2024-02-26T12:12:11;9.60;99.90
13336;DHT22;6737;51.480;11.962;2024-02-26T12:14:40;9.70;99.90
13336;DHT22;6737;51.480;11.962;2024-02-26T12:17:20;9.70;99.90
13336;DHT22;6737;51.480;11.962;2024-02-26T12:19:46;9.70;99.90
13336;DHT22;6737;51.480;11.962;2024-02-26T12:22:15;9.70;99.90
13336;DHT22;6737;51.480;11.962;2024-02-26T12:24:44;9.80;99.90
13336;DHT22;6737;51.480;11.962;2024-02-26T12:27:11;9.80;99.90
13336;DHT22;6737;51.480;11.962;2024-02-26T12:29:37;9.80;99.90
13336;DHT22;6737;51.480;11.962;2024-02-26T12:32:04;9.90;99.90
13336;DHT22;6737;51.480;11.962;2024-02-26T12:34:32;9.80;99.90
13336;DHT22;6737;51.480;11.962;2024-02-26T12:36:58;9.80;99.90
13336;DHT22;6737;51.480;11.962;2024-02-26T12:39:24;9.80;99.90
13336;DHT22;6737;51.480;11.962;2024-02-26T12:41:50;9.80;99.90
13336;DHT22;6737;51.480;11.962;2024-02-26T12:44:17;9.90;99.90
13336;DHT22;6737;51.480;11.962;2024-02-26T12:46:42;9.90;99.90
13336;DHT22;6737;51.480;11.962;2024-02-26T12:49:08;10.00;99.90
13336;DHT22;6737;51.480;11.962;2024-02-26T12:51:40;10.10;99.90
13336;DHT22;6737;51.480;11.962;2024-02-26T12:54:07;10.10;99.90
13336;DHT22;6737;51.480;11.962;2024-02-26T12:56:34;10.20;99.90
13336;DHT22;6737;51.480;11.962;2024-02-26T12:59:00;10.20;99.90
13336;DHT22;6737;51.480;11.962;2024-02-26T13:01:28;10.20;99.90
13336;DHT22;6737;51.480;11.962;2024-02-26T13:03:56;10.20;99.90
13336;DHT22;6737;51.480;11.962;2024-02-26T13:06:22;10.30;99.90
13336;DHT22;6737;51.480;11.962;2024-02-26T13:08:49;10.30;99.90
13336;DHT22;6737;51.480;11.962;2024-02-26T13:11:15;10.30;99.90
13336;DHT22;6737;51.480;11.962;2024-02-26T13:13:41;10.30;99.90
13336;DHT22;6737;51.480;11.962;2024-02-26T13:16:10;10.30;99.90
13336;DHT22;6737;51.480;11.962;2024-02-26T13:18:36;10.30;99.90
13336;DHT22;6737;51.480;11.962;2024-02-26T13:21:13;10.30;99.90
13336;DHT22;6737;51.480;11.962;2024-02-26T13:23:41;10.30;99.90
13336;DHT22;6737;51.480;11.962;2024-02-26T13:26:08;10.40;99.90
13336;DHT22;6737;51.480;11.962;2024-02-26T13:28:37;10.50;99.90
13336;DHT22;6737;51.480;11.962;2024-02-26T13:31:03;10.60;99.90
13336;DHT22;6737;51.480;11.962;2024-02-26T13:33:33;10.60;99.90
13336;DHT22;6737;51.480;11.962;2024-02-26T13:36:00;10.70;99.90
13336;DHT22;6737;51.480;11.962;2024-02-26T13:38:27;10.70;99.90
13336;DHT22;6737;51.480;11.962;2024-02-26T13:40:54;10.70;99.90
13336;DHT22;6737;51.480;11.962;2024-02-26T13:43:21;10.70;99.90
13336;DHT22;6737;51.480;11.962;2024-02-26T13:45:47;10.70;99.90
13336;DHT22;6737;51.480;11.962;2024-02-26T13:48:13;10.60;99.90
13336;DHT22;6737;51.480;11.962;2024-02-26T13:50:41;10.70;99.90
13336;DHT22;6737;51.480;11.962;2024-02-26T13:53:08;10.60;99.90
13336;DHT22;6737;51.480;11.962;2024-02-26T13:55:35;10.60;99.90
13336;DHT22;6737;51.480;11.962;2024-02-26T13:58:02;10.70;99.90
13336;DHT22;6737;51.480;11.962;2024-02-26T14:00:31;10.60;99.90
13336;DHT22;6737;51.480;11.962;2024-02-26T14:03:00;10.70;99.90
13336;DHT22;6737;51.480;11.962;2024-02-26T14:05:26;10.60;99.90
13336;DHT22;6737;51.480;11.962;2024-02-26T14:07:52;10.60;99.90
13336;DHT22;6737;51.480;11.962;2024-02-26T14:10:20;10.60;99.90
13336;DHT22;6737;51.480;11.962;2024-02-26T14:12:46;10.60;99.90
13336;DHT22;6737;51.480;11.962;2024-02-26T14:15:12;10.60;99.90
13336;DHT22;6737;51.480;11.962;2024-02-26T14:17:38;10.60;99.90
13336;DHT22;6737;51.480;11.962;2024-02-26T14:20:04;10.70;99.90
13336;DHT22;6737;51.480;11.962;2024-02-26T14:22:30;10.70;99.90
13336;DHT22;6737;51.480;11.962;2024-02-26T14:24:57;10.70;99.90
13336;DHT22;6737;51.480;11.962;2024-02-26T14:27:23;10.80;99.90
13336;DHT22;6737;51.480;11.962;2024-02-26T14:29:49;10.80;99.90
13336;DHT22;6737;51.480;11.962;2024-02-26T14:32:15;10.80;99.90
13336;DHT22;6737;51.480;11.962;2024-02-26T14:34:41;10.80;99.90
13336;DHT22;6737;51.480;11.962;2024-02-26T14:37:07;10.80;99.90
13336;DHT22;6737;51.480;11.962;2024-02-26T14:39:33;10.80;99.90
13336;DHT22;6737;51.480;11.962;2024-02-26T14:42:00;10.80;99.90
13336;DHT22;6737;51.480;11.962;2024-02-26T14:44:26;10.70;99.90
13336;DHT22;6737;51.480;11.962;2024-02-26T14:46:52;10.80;99.90
13336;DHT22;6737;51.480;11.962;2024-02-26T14:49:18;10.70;99.90
13336;DHT22;6737;51.480;11.962;2024-02-26T14:51:44;10.70;99.90
13336;DHT22;6737;51.480;11.962;2024-02-26T14:54:14;10.70;99.90
13336;DHT22;6737;51.480;11.962;2024-02-26T14:56:40;10.70;99.90
13336;DHT22;6737;51.480;11.962;2024-02-26T14:59:06;10.60;99.90
13336;DHT22;6737;51.480;11.962;2024-02-26T15:01:33;10.60;99.90
13336;DHT22;6737;51.480;11.962;2024-02-26T15:03:59;10.50;99.90
13336;DHT22;6737;51.480;11.962;2024-02-26T15:06:25;10.60;99.90
13336;DHT22;6737;51.480;11.962;2024-02-26T15:08:52;10.60;99.90
13336;DHT22;6737;51.480;11.962;2024-02-26T15:11:18;10.60;99.90
13336;DHT22;6737;51.480;11.962;2024-02-26T15:13:44;10.60;99.90
13336;DHT22;6737;51.480;11.962;2024-02-26T15:16:17;10.60;99.90
13336;DHT22;6737;51.480;11.962;2024-02-26T15:18:47;10.60;99.90
13336;DHT22;6737;51.480;11.962;2024-02-26T15:21:13;10.60;99.90
13336;DHT22;6737;51.480;11.962;2024-02-26T15:23:43;10.60;99.90
13336;DHT22;6737;51.480;11.962;2024-02-26T15:26:10;10.60;99.90
13336;DHT22;6737;51.480;11.962;2024-02-26T15:28:37;10.50;99.90
13336;DHT22;6737;51.480;11.962;2024-02-26T15:31:03;10.60;99.90
13336;DHT22;6737;51.480;11.962;2024-02-26T15:33:29;10.60;99.90
13336;DHT22;6737;51.480;11.962;2024-02-26T15:35:54;10.50;99.90
13336;DHT22;6737;51.480;11.962;2024-02-26T15:38:20;10.50;99.90
13336;DHT22;6737;51.480;11.962;2024-02-26T15:40:47;10.50;99.90